Savage, Minnesota
Current Conditions -  °F | °C
As of 4:53 PM on Tuesday 25 Nov 2014 (Local Time) from KFCM Reporting Station
Overcast Overcast  
Wind Chill: 24°   Ceiling: 5500
Heat Index: 24°   Visibility: 10mi
Dew Point: 12°   Wind: 3mph
Humidity: 60%   Direction: 140°SE
Pressure: 30.01"   Gusts: NA
Location:  44.76°N, 93.35°W
Report Text: KFCM 252253Z 14003KT 10SM OVC055 M04/M11 A3001 RMK AO2 SLP180 T10441111
Loading
Personal Weather Stations






























Interactive Weather Map New forecast layout! Learn more

10-Day Weather Forecast

Advertisements
Track Severe Weather on mobile